Time;durP1;ratioP1;P1;durP2;ratioP2;P2;SDS_P1;SDS_P2;PMS_P1;PMS_P2;Temp;Humidity;BMP_temperature;BMP_pressure;BME280_temperature;BME280_humidity;BME280_pressure;Samples;Min_cycle;Max_cycle;Signal;HPM_P1;HPM_P2
2022/11/16 00:01:13;;;;;;;4.05;2.88;;;14.60;72.60;;;;;;4826796;29;20362;-73
2022/11/16 00:03:38;;;;;;;3.90;2.85;;;14.60;72.60;;;;;;4825556;29;20054;-74
2022/11/16 00:06:06;;;;;;;4.72;3.38;;;14.60;72.80;;;;;;4812983;29;20472;-74
2022/11/16 00:08:34;;;;;;;5.20;3.10;;;14.60;72.80;;;;;;4828069;29;20064;-73
2022/11/16 00:11:07;;;;;;;3.95;3.10;;;14.60;72.90;;;;;;4827692;29;20056;-73
2022/11/16 00:13:34;;;;;;;3.40;2.97;;;14.60;73.00;;;;;;4827906;29;20477;-73
2022/11/16 00:16:00;;;;;;;5.40;3.55;;;14.50;73.10;;;;;;4827786;29;20054;-73
2022/11/16 00:18:26;;;;;;;3.35;3.05;;;14.60;73.20;;;;;;4829802;29;20106;-73
2022/11/16 00:20:52;;;;;;;3.72;3.33;;;14.60;73.30;;;;;;4846197;29;20065;-73
2022/11/16 00:23:18;;;;;;;4.47;3.60;;;14.60;73.40;;;;;;4845723;29;20054;-74
2022/11/16 00:25:44;;;;;;;3.80;3.40;;;14.60;73.50;;;;;;4845773;29;20042;-73
2022/11/16 00:28:10;;;;;;;3.92;3.25;;;14.60;73.50;;;;;;4846071;29;20054;-74
2022/11/16 00:30:35;;;;;;;5.25;3.53;;;14.60;73.50;;;;;;4845995;29;20454;-73
2022/11/16 00:33:06;;;;;;;3.60;3.15;;;14.60;73.60;;;;;;4830783;29;20485;-73
2022/11/16 00:35:36;;;;;;;3.80;3.33;;;14.50;73.60;;;;;;4827642;29;20054;-73
2022/11/16 00:38:02;;;;;;;4.40;3.60;;;14.50;74.20;;;;;;4827556;29;20455;-73
2022/11/16 00:40:27;;;;;;;5.13;3.72;;;14.60;73.70;;;;;;4828021;29;20061;-73
2022/11/16 00:42:53;;;;;;;4.95;3.97;;;14.50;73.80;;;;;;4827354;29;20051;-73
2022/11/16 00:45:19;;;;;;;4.28;3.63;;;14.50;73.80;;;;;;4827448;29;20439;-74
2022/11/16 00:47:44;;;;;;;5.00;3.60;;;14.50;73.90;;;;;;4827080;29;20047;-73
2022/11/16 00:50:10;;;;;;;4.57;3.65;;;14.50;73.90;;;;;;4827517;29;20057;-74
2022/11/16 00:52:36;;;;;;;4.53;3.90;;;14.50;73.90;;;;;;4827346;29;20074;-73
2022/11/16 00:55:01;;;;;;;5.22;3.65;;;14.50;73.90;;;;;;4827340;29;20057;-73
2022/11/16 00:57:27;;;;;;;5.15;3.83;;;14.50;74.00;;;;;;4827852;29;20092;-73
2022/11/16 00:59:53;;;;;;;4.78;3.28;;;14.50;74.60;;;;;;4827004;29;20054;-74
2022/11/16 01:02:18;;;;;;;4.18;3.63;;;14.50;74.00;;;;;;4835674;29;20060;-73
2022/11/16 01:04:44;;;;;;;6.38;3.90;;;14.50;74.00;;;;;;4844380;29;20517;-74
2022/11/16 01:07:10;;;;;;;5.13;3.97;;;14.50;74.10;;;;;;4845479;29;20054;-74
2022/11/16 01:09:35;;;;;;;4.95;4.22;;;14.50;74.20;;;;;;4845155;29;20041;-73
2022/11/16 01:12:11;;;;;;;4.72;4.20;;;14.50;74.20;;;;;;4844964;29;20404;-73
2022/11/16 01:14:39;;;;;;;5.13;4.63;;;14.50;74.20;;;;;;4845284;29;20080;-73
2022/11/16 01:17:06;;;;;;;5.35;4.80;;;14.50;74.30;;;;;;4845287;29;20470;-73
2022/11/16 01:19:32;;;;;;;5.10;4.25;;;14.50;74.90;;;;;;4844623;29;20097;-73
2022/11/16 01:21:58;;;;;;;5.50;4.45;;;14.50;74.40;;;;;;4844668;29;20423;-73
2022/11/16 01:24:25;;;;;;;5.15;4.50;;;14.50;74.40;;;;;;4844737;29;20050;-73
2022/11/16 01:26:51;;;;;;;5.53;4.38;;;14.50;74.50;;;;;;4844976;29;20058;-73
2022/11/16 01:29:16;;;;;;;5.13;4.63;;;14.50;74.50;;;;;;4844831;29;20196;-73
2022/11/16 01:31:42;;;;;;;5.85;5.18;;;14.50;74.60;;;;;;4839952;29;20046;-73
2022/11/16 01:34:08;;;;;;;5.40;4.60;;;14.50;74.60;;;;;;4826796;29;20129;-73
2022/11/16 01:36:35;;;;;;;5.72;4.88;;;14.50;74.70;;;;;;4826500;29;20065;-73
2022/11/16 01:39:02;;;;;;;6.05;5.45;;;14.50;74.80;;;;;;4826744;29;20050;-73
2022/11/16 01:41:28;;;;;;;5.30;4.80;;;14.50;74.80;;;;;;4810603;29;20466;-74
2022/11/16 01:44:00;;;;;;;5.82;5.05;;;14.50;74.80;;;;;;4827177;29;20042;-73
2022/11/16 01:46:27;;;;;;;5.90;5.03;;;14.50;74.90;;;;;;4826398;29;20131;-73
2022/11/16 01:49:09;;;;;;;5.90;5.05;;;14.50;75.00;;;;;;4826580;29;20058;-73
2022/11/16 01:51:36;;;;;;;6.05;5.00;;;14.50;75.60;;;;;;4826547;29;20429;-73
2022/11/16 01:54:07;;;;;;;5.78;4.90;;;14.50;75.10;;;;;;4826548;29;20119;-74
2022/11/16 01:56:35;;;;;;;5.93;5.32;;;14.50;75.10;;;;;;4826630;29;20589;-74
2022/11/16 01:59:01;;;;;;;5.28;4.78;;;14.50;75.20;;;;;;4826084;29;20458;-73
2022/11/16 02:01:27;;;;;;;5.82;5.28;;;14.50;75.20;;;;;;4830724;29;20056;-73
2022/11/16 02:03:53;;;;;;;5.65;5.00;;;14.50;75.30;;;;;;4844257;29;20122;-73
2022/11/16 02:06:29;;;;;;;7.80;5.85;;;14.50;75.30;;;;;;4844501;29;20042;-73
2022/11/16 02:12:01;;;;;;;5.70;5.10;;;14.50;75.40;;;;;;4844546;29;20070;-73
2022/11/16 02:15:00;;;;;;;6.13;5.53;;;14.50;75.50;;;;;;4844456;29;20056;-73
2022/11/16 02:17:37;;;;;;;5.75;5.22;;;14.50;75.40;;;;;;4844369;29;20125;-73
2022/11/16 02:20:22;;;;;;;5.78;5.13;;;14.50;75.50;;;;;;4842284;29;20054;-73
2022/11/16 02:22:51;;;;;;;6.55;5.80;;;14.50;75.50;;;;;;4826138;29;20363;-74
2022/11/16 02:25:34;;;;;;;6.20;5.55;;;14.50;75.60;;;;;;4809741;29;20058;-73
2022/11/16 02:28:25;;;;;;;6.90;6.00;;;14.50;75.60;;;;;;4825699;29;20061;-73
2022/11/16 02:30:55;;;;;;;6.18;5.57;;;14.50;75.70;;;;;;4825948;29;20061;-73
2022/11/16 02:33:26;;;;;;;6.57;5.93;;;14.50;75.70;;;;;;4825789;29;20490;-73
2022/11/16 02:35:56;;;;;;;7.40;5.63;;;14.50;75.70;;;;;;4829520;29;20050;-73
2022/11/16 02:38:26;;;;;;;6.75;5.22;;;14.50;75.70;;;;;;4829295;29;20061;-73
2022/11/16 02:41:00;;;;;;;6.45;5.60;;;14.50;75.80;;;;;;4829303;29;20057;-74
2022/11/16 02:43:34;;;;;;;7.53;6.32;;;14.50;75.80;;;;;;4829344;29;20065;-74
2022/11/16 02:46:07;;;;;;;5.95;5.35;;;14.40;75.80;;;;;;4829391;29;20042;-73
2022/11/16 02:48:49;;;;;;;7.28;6.13;;;14.50;75.90;;;;;;4829185;29;20064;-73
2022/11/16 02:51:17;;;;;;;6.55;5.82;;;14.50;75.90;;;;;;4829550;29;20042;-73
2022/11/16 02:54:16;;;;;;;6.82;6.18;;;14.50;76.00;;;;;;4829255;29;20051;-73
2022/11/16 02:57:14;;;;;;;6.85;6.25;;;14.50;75.90;;;;;;4821746;29;20055;-73
2022/11/16 02:59:49;;;;;;;8.05;6.65;;;14.50;76.00;;;;;;4828861;29;20359;-73
2022/11/16 03:02:34;;;;;;;7.03;6.32;;;14.50;76.10;;;;;;4828635;29;20050;-73
2022/11/16 03:05:04;;;;;;;7.05;6.30;;;14.50;76.20;;;;;;4828730;29;20133;-73
2022/11/16 03:07:45;;;;;;;7.93;5.93;;;14.50;76.30;;;;;;4828735;29;20126;-73
2022/11/16 03:11:58;;;;;;;6.78;5.97;;;14.40;76.20;;;;;;4828242;29;20486;-73
2022/11/16 03:13:00;;;;;;;6.80;6.18;;;14.40;76.30;;;;;;4828896;29;20054;-73
2022/11/16 03:15:26;;;;;;;6.78;6.07;;;14.40;76.30;;;;;;4828853;29;20159;-73
2022/11/16 03:17:53;;;;;;;6.63;6.03;;;14.40;76.40;;;;;;4829358;29;20346;-73
2022/11/16 03:20:25;;;;;;;6.20;5.60;;;14.40;76.40;;;;;;4847251;29;20144;-73
2022/11/16 03:23:11;;;;;;;8.10;5.78;;;14.40;76.40;;;;;;4846922;29;20104;-73
2022/11/16 03:25:47;;;;;;;6.50;5.80;;;14.40;76.40;;;;;;4846882;29;20133;-73
2022/11/16 03:28:28;;;;;;;7.43;6.25;;;14.40;76.50;;;;;;4846448;29;20110;-73
2022/11/16 03:31:01;;;;;;;5.95;5.13;;;14.40;76.50;;;;;;4846807;29;20049;-73
2022/11/16 03:33:31;;;;;;;7.30;5.32;;;14.40;76.50;;;;;;4847050;29;20218;-73
2022/11/16 03:36:06;;;;;;;5.72;5.13;;;14.40;76.60;;;;;;4846988;29;20415;-73
2022/11/16 03:38:34;;;;;;;5.43;4.93;;;14.40;76.60;;;;;;4846871;29;20385;-73
2022/11/16 03:41:04;;;;;;;6.40;5.80;;;14.40;76.70;;;;;;4846685;29;20050;-73
2022/11/16 03:43:32;;;;;;;6.93;5.75;;;14.40;76.70;;;;;;4846530;29;20484;-73
2022/11/16 03:45:58;;;;;;;6.63;5.57;;;14.40;76.80;;;;;;4845641;29;20065;-73
2022/11/16 03:48:24;;;;;;;6.03;5.43;;;14.40;76.80;;;;;;4841873;29;20129;-73
2022/11/16 03:50:51;;;;;;;6.18;5.57;;;14.40;76.80;;;;;;4828064;29;20046;-73
2022/11/16 03:53:17;;;;;;;5.80;5.22;;;14.40;76.90;;;;;;4828474;29;20135;-73
2022/11/16 03:55:43;;;;;;;6.38;5.55;;;14.40;76.90;;;;;;4828093;29;20054;-73
2022/11/16 03:58:09;;;;;;;6.40;5.80;;;14.40;77.50;;;;;;4828431;29;20114;-73
2022/11/16 04:00:35;;;;;;;5.88;5.28;;;14.40;76.90;;;;;;4827928;29;20054;-73
2022/11/16 04:03:01;;;;;;;7.68;5.57;;;14.40;76.90;;;;;;4843880;29;20137;-73
2022/11/16 04:25:13;;;;;;;5.10;4.38;;;14.40;77.10;;;;;;4846230;29;20050;-74
2022/11/16 04:30:23;;;;;;;5.28;4.72;;;14.40;77.20;;;;;;4845866;29;20141;-74
2022/11/16 04:38:18;;;;;;;9.02;4.75;;;14.40;77.30;;;;;;4827018;29;20058;-74
2022/11/16 04:40:44;;;;;;;8.02;4.65;;;14.40;77.30;;;;;;4827445;29;20059;-75
2022/11/16 04:43:09;;;;;;;5.00;3.97;;;14.50;77.40;;;;;;4827537;29;20085;-80
2022/11/16 05:36:30;;;;;;;14.18;2.53;;;16.10;78.50;;;;;;5203755;24;20061;-78
2022/11/16 05:38:55;;;;;;;8.00;2.15;;;16.10;78.50;;;;;;4842379;29;20050;-79
2022/11/16 05:41:21;;;;;;;20.17;2.10;;;16.20;78.60;;;;;;4844280;29;20046;-79
2022/11/16 05:43:47;;;;;;;16.95;2.08;;;16.30;79.20;;;;;;4844665;29;20083;-78
2022/11/16 05:46:12;;;;;;;11.45;2.38;;;16.40;78.20;;;;;;4844429;29;20042;-75
2022/11/16 05:48:38;;;;;;;16.15;2.60;;;16.50;78.30;;;;;;4845070;29;20049;-79
2022/11/16 05:51:04;;;;;;;19.30;2.17;;;16.50;78.10;;;;;;4844631;29;20398;-80
2022/11/16 05:53:30;;;;;;;22.42;3.00;;;16.60;77.80;;;;;;4812882;29;20129;-79
2022/11/16 05:55:55;;;;;;;20.90;2.65;;;16.70;77.60;;;;;;4844036;29;20136;-79
2022/11/16 05:58:21;;;;;;;10.20;2.40;;;16.70;77.60;;;;;;4844502;29;20041;-78
2022/11/16 06:00:47;;;;;;;11.60;2.10;;;16.70;77.50;;;;;;4844615;29;20089;-77
2022/11/16 06:03:12;;;;;;;16.77;3.40;;;16.60;77.40;;;;;;4844455;29;20119;-78
2022/11/16 06:05:38;;;;;;;18.92;2.70;;;16.60;76.60;;;;;;4844297;29;20054;-75
2022/11/16 06:08:04;;;;;;;7.68;2.55;;;16.60;77.30;;;;;;4843933;29;20094;-75
2022/11/16 06:10:30;;;;;;;11.98;2.40;;;16.50;77.40;;;;;;4828943;29;20054;-76
2022/11/16 06:12:58;;;;;;;13.23;2.75;;;16.40;77.30;;;;;;4844351;29;20064;-77
2022/11/16 06:15:26;;;;;;;10.90;3.45;;;16.40;77.40;;;;;;4838741;29;20120;-79
2022/11/16 06:17:52;;;;;;;7.90;3.88;;;16.40;77.30;;;;;;4842072;29;20045;-77
2022/11/16 06:20:18;;;;;;;6.78;4.38;;;16.30;76.60;;;;;;4843433;29;20082;-76
2022/11/16 06:22:44;;;;;;;7.88;5.07;;;16.30;76.20;;;;;;4828343;29;20054;-77
2022/11/16 06:25:09;;;;;;;8.18;5.45;;;16.30;75.90;;;;;;4844029;29;20042;-76
2022/11/16 06:27:38;;;;;;;8.07;4.65;;;16.20;75.50;;;;;;4844332;29;20068;-79
2022/11/16 06:30:06;;;;;;;6.20;4.15;;;16.10;75.40;;;;;;4844212;29;20127;-80
2022/11/16 06:32:32;;;;;;;5.55;3.72;;;16.10;75.40;;;;;;4827766;29;20045;-80
2022/11/16 06:34:57;;;;;;;6.43;3.83;;;16.00;75.30;;;;;;4827904;29;20083;-79
2022/11/16 06:37:23;;;;;;;4.47;3.50;;;16.00;75.30;;;;;;4827736;29;20089;-78
2022/11/16 06:39:49;;;;;;;6.63;3.45;;;15.90;75.30;;;;;;4827950;29;20050;-80
2022/11/16 06:42:15;;;;;;;4.35;3.22;;;15.90;75.30;;;;;;4844660;29;20054;-78
2022/11/16 06:44:40;;;;;;;6.20;3.05;;;15.90;75.30;;;;;;4828093;29;20121;-78
2022/11/16 06:47:06;;;;;;;3.80;2.78;;;15.90;75.40;;;;;;4843949;29;20085;-80
2022/11/16 06:49:32;;;;;;;5.85;3.13;;;15.90;75.50;;;;;;4827370;29;20037;-80
2022/11/16 06:51:57;;;;;;;5.75;2.40;;;15.80;75.50;;;;;;4844050;29;20105;-80
2022/11/16 06:54:23;;;;;;;7.13;3.55;;;15.80;75.60;;;;;;4843857;29;20083;-80
2022/11/16 06:56:49;;;;;;;17.33;3.75;;;15.80;75.70;;;;;;4827876;29;20050;-78
2022/11/16 06:59:15;;;;;;;8.18;3.50;;;15.70;76.50;;;;;;4844099;29;20141;-78
2022/11/16 07:01:41;;;;;;;7.90;3.40;;;15.60;76.70;;;;;;4857987;29;20046;-78
2022/11/16 07:04:10;;;;;;;9.35;4.00;;;15.70;76.70;;;;;;4844085;29;20050;-80
2022/11/16 07:06:37;;;;;;;10.98;4.10;;;15.60;76.80;;;;;;4843650;29;20140;-79
2022/11/16 07:09:09;;;;;;;10.40;4.00;;;15.60;77.60;;;;;;4843815;29;20046;-79
2022/11/16 07:11:35;;;;;;;11.45;3.50;;;15.60;77.40;;;;;;4828160;29;20069;-79
2022/11/16 07:14:02;;;;;;;11.65;4.13;;;15.60;77.50;;;;;;4843889;29;20136;-82
2022/11/16 07:16:28;;;;;;;10.52;4.25;;;15.70;77.50;;;;;;4843827;29;20046;-81
2022/11/16 07:18:56;;;;;;;12.60;4.63;;;15.60;77.40;;;;;;4828571;29;20362;-80
2022/11/16 07:21:22;;;;;;;6.05;3.35;;;15.60;77.40;;;;;;4829141;29;20050;-79
2022/11/16 07:23:48;;;;;;;8.02;3.47;;;15.60;77.30;;;;;;4816175;29;20457;-79
2022/11/16 07:26:14;;;;;;;9.27;3.30;;;15.60;77.30;;;;;;4830774;29;20050;-80
2022/11/16 07:28:39;;;;;;;11.50;4.72;;;15.60;77.30;;;;;;4831302;29;20061;-80
2022/11/16 07:31:08;;;;;;;12.88;4.25;;;15.70;77.40;;;;;;4830646;29;20092;-81
2022/11/16 07:33:37;;;;;;;11.18;4.30;;;15.60;77.50;;;;;;4830226;29;20049;-79
2022/11/16 07:36:13;;;;;;;10.77;4.28;;;15.60;78.10;;;;;;4846658;29;20149;-79
2022/11/16 07:38:39;;;;;;;10.07;3.90;;;15.60;78.40;;;;;;4846500;29;20057;-78
2022/11/16 07:41:08;;;;;;;10.50;3.50;;;15.60;78.10;;;;;;4847038;29;20126;-81
2022/11/16 07:43:34;;;;;;;8.90;3.30;;;15.60;78.20;;;;;;4815925;29;20447;-79
2022/11/16 07:46:09;;;;;;;15.93;4.03;;;15.60;78.30;;;;;;4846760;29;20093;-80
2022/11/16 07:48:34;;;;;;;12.73;3.45;;;15.60;78.40;;;;;;4830053;29;20086;-78
2022/11/16 07:51:05;;;;;;;15.80;3.72;;;15.60;78.00;;;;;;4829891;29;20096;-80
2022/11/16 07:53:32;;;;;;;9.40;3.42;;;15.60;77.60;;;;;;4830218;29;20113;-79
2022/11/16 07:55:58;;;;;;;9.98;3.10;;;15.50;77.80;;;;;;4830033;29;20077;-80
2022/11/16 07:58:26;;;;;;;7.47;2.53;;;15.50;77.70;;;;;;4846127;29;20045;-80
2022/11/16 08:00:52;;;;;;;7.72;2.50;;;15.50;77.90;;;;;;4814732;29;20125;-81
2022/11/16 08:03:18;;;;;;;8.05;2.90;;;15.50;78.00;;;;;;4846086;29;20046;-80
2022/11/16 08:05:45;;;;;;;8.00;2.63;;;15.50;78.20;;;;;;4830014;29;20050;-79
2022/11/16 08:08:11;;;;;;;9.50;2.05;;;15.40;78.30;;;;;;4830519;29;20450;-80
2022/11/16 08:10:43;;;;;;;12.23;2.28;;;15.40;78.30;;;;;;4830298;29;20046;-80
2022/11/16 08:13:09;;;;;;;11.38;2.60;;;15.50;78.60;;;;;;4845953;29;20382;-82
2022/11/16 08:15:34;;;;;;;8.10;2.22;;;15.50;78.70;;;;;;4830244;29;20050;-81
2022/11/16 08:18:00;;;;;;;11.07;2.00;;;15.50;78.80;;;;;;4829988;29;20060;-80
2022/11/16 08:20:27;;;;;;;9.15;2.03;;;15.50;78.90;;;;;;4829627;29;20136;-82
2022/11/16 08:23:00;;;;;;;11.65;1.90;;;15.60;79.00;;;;;;4845831;29;20045;-79
2022/11/16 08:25:29;;;;;;;7.90;1.58;;;15.70;79.00;;;;;;4845110;29;20122;-82
2022/11/16 08:27:55;;;;;;;19.40;2.42;;;15.70;78.70;;;;;;4829569;29;20045;-79
2022/11/16 08:30:21;;;;;;;6.53;1.73;;;15.80;78.70;;;;;;4814752;29;20042;-81
2022/11/16 08:32:52;;;;;;;9.88;1.92;;;15.90;78.60;;;;;;4844821;29;20053;-82
2022/11/16 08:35:18;;;;;;;10.07;1.88;;;16.00;78.70;;;;;;4844721;29;20054;-81
2022/11/16 08:37:43;;;;;;;9.38;1.20;;;16.10;79.00;;;;;;4844507;29;20066;-80
2022/11/16 08:40:10;;;;;;;13.13;1.92;;;16.20;78.70;;;;;;4829728;29;20056;-82
2022/11/16 08:42:35;;;;;;;9.30;1.67;;;16.20;78.40;;;;;;4829231;29;20133;-73
2022/11/16 08:45:01;;;;;;;10.35;1.55;;;16.30;78.30;;;;;;4845250;29;20121;-78
2022/11/16 08:47:27;;;;;;;8.55;2.35;;;16.30;78.30;;;;;;4845524;29;20041;-77
2022/11/16 08:49:52;;;;;;;13.18;2.95;;;16.30;78.00;;;;;;4845560;29;20454;-77
2022/11/16 08:52:18;;;;;;;7.50;2.33;;;16.30;77.50;;;;;;4829215;29;20060;-75
2022/11/16 08:54:44;;;;;;;10.65;2.50;;;16.30;77.30;;;;;;4845443;29;20041;-79
2022/11/16 08:57:09;;;;;;;7.43;2.47;;;16.30;77.30;;;;;;4845262;29;20081;-78
2022/11/16 08:59:35;;;;;;;5.68;1.55;;;16.30;77.50;;;;;;4845614;29;20054;-79
2022/11/16 09:02:01;;;;;;;9.10;1.55;;;16.30;77.70;;;;;;4845424;29;20335;-78
2022/11/16 09:04:26;;;;;;;11.27;1.83;;;16.30;77.90;;;;;;4844823;29;20046;-77
2022/11/16 09:06:53;;;;;;;7.75;2.03;;;16.20;78.00;;;;;;4844444;29;20206;-76
2022/11/16 09:09:19;;;;;;;7.68;2.25;;;16.30;78.10;;;;;;4843759;29;20098;-78
2022/11/16 09:11:51;;;;;;;9.40;3.35;;;16.30;77.80;;;;;;4844928;29;20049;-79
2022/11/16 09:14:17;;;;;;;7.50;3.35;;;16.30;77.10;;;;;;4827570;29;20366;-80
2022/11/16 09:16:42;;;;;;;9.52;3.15;;;16.20;76.80;;;;;;4844791;29;20061;-80
2022/11/16 09:19:09;;;;;;;8.07;2.97;;;16.10;76.50;;;;;;4845036;29;20050;-80
2022/11/16 09:21:36;;;;;;;6.53;3.20;;;16.10;76.50;;;;;;4828736;29;20465;-79
2022/11/16 09:24:02;;;;;;;6.60;2.40;;;16.00;76.40;;;;;;4845138;29;20484;-80
2022/11/16 09:26:28;;;;;;;7.07;2.58;;;16.00;76.40;;;;;;4844706;29;20068;-78
2022/11/16 09:28:56;;;;;;;4.50;2.28;;;16.00;76.40;;;;;;4828883;29;20057;-81
2022/11/16 09:31:23;;;;;;;7.18;2.20;;;16.00;76.40;;;;;;4829091;29;20053;-79
2022/11/16 09:33:49;;;;;;;4.75;2.05;;;16.00;76.40;;;;;;4828647;29;20054;-79
2022/11/16 09:36:15;;;;;;;6.22;2.08;;;16.00;76.50;;;;;;4828801;29;20058;-80
2022/11/16 09:38:43;;;;;;;3.63;1.80;;;15.90;76.40;;;;;;4829003;29;20078;-80
2022/11/16 09:41:37;;;;;;;3.80;2.00;;;15.90;76.40;;;;;;4828481;29;20114;-80
2022/11/16 09:44:40;;;;;;;3.88;1.95;;;15.90;76.30;;;;;;4828265;29;20114;-80
2022/11/16 09:47:16;;;;;;;3.97;1.88;;;15.90;76.30;;;;;;4845249;29;20380;-79
2022/11/16 09:49:47;;;;;;;6.30;1.80;;;15.90;76.40;;;;;;4844743;29;20128;-80
2022/11/16 09:52:29;;;;;;;5.65;1.70;;;15.90;76.40;;;;;;4828959;29;20053;-81
2022/11/16 09:54:58;;;;;;;3.90;1.20;;;15.80;76.40;;;;;;4828836;29;20058;-80
2022/11/16 09:57:31;;;;;;;3.65;1.45;;;15.80;76.50;;;;;;4813501;29;20062;-80
2022/11/16 10:00:03;;;;;;;4.67;1.70;;;15.90;76.50;;;;;;4844452;29;20085;-78
2022/11/16 10:02:32;;;;;;;5.10;1.45;;;15.80;76.40;;;;;;4828094;29;20295;-80
2022/11/16 10:05:13;;;;;;;3.20;1.13;;;15.80;76.50;;;;;;4828303;29;20062;-79
2022/11/16 10:07:42;;;;;;;3.08;0.98;;;15.80;76.50;;;;;;4828635;29;20050;-82
2022/11/16 10:10:33;;;;;;;3.22;1.10;;;15.80;76.50;;;;;;4844198;29;20050;-79
2022/11/16 10:13:22;;;;;;;2.30;1.30;;;15.80;76.40;;;;;;4844605;29;20373;-80
2022/11/16 10:16:09;;;;;;;6.68;1.38;;;15.70;76.40;;;;;;4844455;29;20126;-79
2022/11/16 10:18:59;;;;;;;3.63;1.35;;;15.80;76.40;;;;;;4813911;29;20132;-79
2022/11/16 10:21:36;;;;;;;2.60;1.35;;;15.80;76.40;;;;;;4844039;29;20144;-81
2022/11/16 10:24:22;;;;;;;2.30;1.02;;;15.80;76.50;;;;;;4844468;29;20050;-80
2022/11/16 10:27:16;;;;;;;2.58;1.20;;;15.80;76.50;;;;;;4836832;29;20053;-79
2022/11/16 10:30:09;;;;;;;3.43;1.97;;;15.80;76.50;;;;;;4828480;29;20558;-81
2022/11/16 10:32:59;;;;;;;1.85;1.02;;;15.70;76.30;;;;;;4843945;29;20141;-79
2022/11/16 10:35:29;;;;;;;3.35;1.10;;;15.70;76.40;;;;;;4828231;29;20065;-77
2022/11/16 10:37:58;;;;;;;2.47;1.08;;;15.70;76.50;;;;;;4842899;29;20069;-79
2022/11/16 10:40:34;;;;;;;3.33;1.00;;;15.70;76.40;;;;;;4826791;29;20050;-80
2022/11/16 10:43:23;;;;;;;3.17;1.30;;;15.70;76.40;;;;;;4827676;29;20470;-78
2022/11/16 10:46:03;;;;;;;2.42;0.98;;;15.70;76.40;;;;;;4844203;29;20054;-81
2022/11/16 10:48:36;;;;;;;2.45;1.40;;;15.70;76.50;;;;;;4844175;29;20042;-78
2022/11/16 10:51:03;;;;;;;3.85;1.13;;;15.70;76.50;;;;;;4828221;29;20478;-79
2022/11/16 10:53:41;;;;;;;1.00;0.85;;;15.70;76.40;;;;;;4827989;29;20058;-79
2022/11/16 10:56:30;;;;;;;2.35;1.55;;;15.60;76.40;;;;;;4830866;29;20046;-79
2022/11/16 10:59:00;;;;;;;2.88;1.20;;;15.70;76.40;;;;;;4831270;29;20053;-79
2022/11/16 11:01:42;;;;;;;1.98;1.20;;;15.60;76.40;;;;;;4831087;29;20061;-79
2022/11/16 11:04:20;;;;;;;3.90;0.90;;;15.60;76.40;;;;;;4816209;29;20054;-79
2022/11/16 11:06:52;;;;;;;2.38;1.20;;;15.70;76.50;;;;;;4816613;29;20058;-80
2022/11/16 11:13:10;;;;;;;1.75;1.15;;;15.70;76.40;;;;;;4846997;29;20074;-74
2022/11/16 11:15:37;;;;;;;3.15;1.48;;;15.60;76.40;;;;;;4847005;29;20054;-73
2022/11/16 11:18:10;;;;;;;3.42;1.60;;;15.70;76.40;;;;;;4847194;29;20118;-78
2022/11/16 11:20:42;;;;;;;5.93;2.03;;;15.70;76.40;;;;;;4847376;29;20461;-78
2022/11/16 11:23:33;;;;;;;5.13;2.08;;;15.60;76.40;;;;;;4846795;29;20053;-79
2022/11/16 11:25:59;;;;;;;7.00;1.92;;;15.70;76.40;;;;;;4843145;29;20050;-77
2022/11/16 11:28:34;;;;;;;3.85;2.00;;;15.60;76.50;;;;;;4830383;29;20072;-78
2022/11/16 11:31:08;;;;;;;6.57;2.92;;;15.70;76.30;;;;;;4830422;29;20053;-77
2022/11/16 11:33:48;;;;;;;10.27;6.75;;;15.70;76.10;;;;;;4829399;29;20050;-80
2022/11/16 11:36:22;;;;;;;14.02;6.20;;;15.70;74.50;;;;;;4864593;29;20354;-79
2022/11/16 11:39:28;;;;;;;9.77;5.63;;;15.70;74.20;;;;;;4865190;29;20057;-78
2022/11/16 11:42:12;;;;;;;9.98;4.82;;;15.60;74.70;;;;;;4812008;29;20044;-78
2022/11/16 11:44:48;;;;;;;;;;;15.60;75.00;;;;;;4813011;29;20088;-80
2022/11/16 11:47:47;;;;;;;8.90;4.13;;;15.70;75.10;;;;;;4828102;29;20328;-78
2022/11/16 11:50:19;;;;;;;13.48;3.85;;;15.70;75.60;;;;;;4828491;29;20061;-77
2022/11/16 11:53:31;;;;;;;13.45;3.83;;;15.90;75.60;;;;;;4828094;29;20058;-77
2022/11/16 11:55:58;;;;;;;13.35;4.10;;;16.00;76.00;;;;;;4816973;29;20137;-77
2022/11/16 11:58:37;;;;;;;14.85;4.28;;;16.10;75.40;;;;;;4812353;29;20054;-78
2022/11/16 12:01:34;;;;;;;11.52;4.00;;;16.20;76.10;;;;;;4828366;29;20054;-76
2022/11/16 12:04:18;;;;;;;12.55;3.90;;;16.20;76.30;;;;;;4812150;29;20069;-76
2022/11/16 12:06:55;;;;;;;12.60;4.38;;;16.30;76.50;;;;;;4827058;29;20462;-75
2022/11/16 12:09:42;;;;;;;10.88;3.85;;;16.40;76.20;;;;;;4812596;29;20046;-84
2022/11/16 12:12:20;;;;;;;12.75;4.00;;;16.40;75.60;;;;;;4811812;29;20054;-85
2022/11/16 12:15:19;;;;;;;14.65;4.45;;;16.40;75.50;;;;;;4811761;29;20061;-84
2022/11/16 12:17:51;;;;;;;7.85;3.35;;;16.40;75.50;;;;;;4796822;29;20065;-84
2022/11/16 12:20:35;;;;;;;8.15;3.03;;;16.40;75.60;;;;;;4811450;29;20046;-79
2022/11/16 12:23:07;;;;;;;8.30;3.33;;;16.50;75.70;;;;;;4827553;29;20057;-80
2022/11/16 12:26:13;;;;;;;11.82;4.05;;;16.40;75.90;;;;;;4811161;29;20070;-86
2022/11/16 12:33:13;;;;;;;13.95;3.95;;;16.40;76.50;;;;;;4844668;29;20038;-80
2022/11/16 12:35:57;;;;;;;13.63;3.20;;;16.40;76.80;;;;;;4793746;29;20050;-84
2022/11/16 12:43:33;;;;;;;14.60;3.35;;;16.30;76.80;;;;;;5065254;27;2004525;-77
2022/11/16 12:46:18;;;;;;;11.68;2.63;;;16.30;77.30;;;;;;5093391;28;20052;-79
2022/11/16 12:48:53;;;;;;;11.60;2.58;;;16.20;77.30;;;;;;5057663;28;20042;-86
2022/11/16 12:51:57;;;;;;;17.10;2.60;;;16.30;77.30;;;;;;5110628;28;20393;-79
2022/11/16 12:54:35;;;;;;;10.75;2.42;;;16.30;77.20;;;;;;5112209;28;20063;-77
2022/11/16 12:57:24;;;;;;;18.65;2.60;;;16.30;77.20;;;;;;5111946;28;20044;-77
2022/11/16 13:00:07;;;;;;;9.55;1.83;;;16.30;77.10;;;;;;5091644;28;20430;-77
2022/11/16 13:02:54;;;;;;;9.50;2.60;;;16.30;77.00;;;;;;5102424;28;20127;-76
2022/11/16 13:05:24;;;;;;;10.38;2.85;;;16.30;76.70;;;;;;5102285;28;20131;-77
2022/11/16 13:08:01;;;;;;;8.52;2.10;;;16.30;76.60;;;;;;5092207;28;20048;-77
2022/11/16 13:10:32;;;;;;;13.43;2.33;;;16.30;76.30;;;;;;5109837;28;20039;-76
2022/11/16 13:13:02;;;;;;;13.90;2.95;;;16.30;76.40;;;;;;5102567;28;20056;-77
2022/11/16 13:15:38;;;;;;;11.55;2.03;;;16.30;76.40;;;;;;5106956;28;20048;-78
2022/11/16 13:18:10;;;;;;;12.75;2.58;;;16.30;76.40;;;;;;5099235;28;20131;-76
2022/11/16 13:21:04;;;;;;;14.43;2.33;;;16.30;76.50;;;;;;5091954;28;20048;-76
2022/11/16 13:23:30;;;;;;;12.93;1.70;;;16.30;76.60;;;;;;5091956;28;20059;-77
2022/11/16 13:26:32;;;;;;;10.02;1.70;;;16.30;76.60;;;;;;5099138;28;20048;-77
2022/11/16 13:29:14;;;;;;;8.82;1.88;;;16.30;76.60;;;;;;5111864;28;20075;-76
2022/11/16 13:31:59;;;;;;;8.50;1.55;;;16.30;76.70;;;;;;5073837;28;20059;-76
2022/11/16 13:34:34;;;;;;;11.63;2.95;;;16.30;76.60;;;;;;5103015;28;20470;-76
2022/11/16 13:36:59;;;;;;;14.38;1.98;;;16.30;76.40;;;;;;5112797;28;20048;-74
2022/11/16 13:40:14;;;;;;;13.00;2.20;;;16.30;75.80;;;;;;5094338;28;20122;-77
2022/11/16 13:42:57;;;;;;;10.73;2.30;;;16.30;75.40;;;;;;5088276;28;20048;-81
2022/11/16 13:45:30;;;;;;;10.30;2.30;;;16.30;75.00;;;;;;5111669;28;20105;-80
2022/11/16 13:47:57;;;;;;;11.80;2.20;;;16.30;74.60;;;;;;5094274;28;20113;-80
2022/11/16 13:50:32;;;;;;;7.40;1.73;;;16.30;74.50;;;;;;5111880;28;20126;-81
2022/11/16 13:53:04;;;;;;;8.82;1.92;;;16.20;74.20;;;;;;5106731;28;20442;-81
2022/11/16 13:55:37;;;;;;;7.18;1.52;;;16.20;74.20;;;;;;5097529;28;20048;-79
2022/11/16 13:58:05;;;;;;;9.73;1.63;;;16.20;74.20;;;;;;5080063;28;20084;-79
2022/11/16 14:00:35;;;;;;;7.80;1.85;;;16.20;74.40;;;;;;5081098;28;20052;-80
2022/11/16 14:03:15;;;;;;;9.52;1.83;;;16.20;75.00;;;;;;5062710;28;20059;-80
2022/11/16 14:05:46;;;;;;;8.88;1.80;;;16.10;74.30;;;;;;5095183;28;20106;-79
2022/11/16 14:08:18;;;;;;;8.25;1.45;;;16.10;74.50;;;;;;5096892;28;20415;-80
2022/11/16 14:10:43;;;;;;;5.10;1.23;;;16.10;74.50;;;;;;5097918;28;20052;-80
2022/11/16 14:13:47;;;;;;;8.60;1.95;;;16.10;74.70;;;;;;5097381;28;20052;-81
2022/11/16 14:16:20;;;;;;;6.75;1.60;;;16.10;74.70;;;;;;5080224;28;20090;-80
2022/11/16 14:18:47;;;;;;;4.93;1.08;;;16.10;74.80;;;;;;5097487;28;20044;-80
2022/11/16 14:21:18;;;;;;;4.95;1.00;;;16.10;74.90;;;;;;5080058;28;20035;-80
2022/11/16 14:24:03;;;;;;;6.03;2.00;;;16.10;74.80;;;;;;5079289;28;20055;-80
2022/11/16 14:27:22;;;;;;;4.53;1.13;;;16.10;74.90;;;;;;5077452;28;20048;-80
2022/11/16 14:30:09;;;;;;;4.85;1.33;;;16.10;74.80;;;;;;4990883;28;20060;-79
2022/11/16 14:32:44;;;;;;;7.03;2.10;;;16.10;75.00;;;;;;5091238;28;20044;-81
2022/11/16 14:35:26;;;;;;;6.50;1.50;;;16.00;74.90;;;;;;5062631;28;20454;-80
2022/11/16 14:38:14;;;;;;;5.75;1.58;;;16.10;74.90;;;;;;5096862;28;20423;-80
2022/11/16 14:40:45;;;;;;;6.55;1.08;;;16.00;74.90;;;;;;5062192;28;20421;-81
2022/11/16 14:43:36;;;;;;;4.00;1.08;;;16.00;75.00;;;;;;5096751;28;20086;-82
2022/11/16 14:46:29;;;;;;;4.82;1.23;;;16.00;75.00;;;;;;5078899;28;20135;-82
2022/11/16 14:48:58;;;;;;;4.57;1.25;;;16.00;74.90;;;;;;5039057;28;20048;-80